sensor_id;sensor_type;location;lat;lon;timestamp;pressure;altitude;pressure_sealevel;temperature
68440;BMP180;55421;51.600;5.718;2023-10-08T00:02:27;224082.20;;;17.18
68440;BMP180;55421;51.600;5.718;2023-10-08T00:04:54;224075.80;;;17.18
68440;BMP180;55421;51.600;5.718;2023-10-08T00:07:26;224068.80;;;17.10
68440;BMP180;55421;51.600;5.718;2023-10-08T00:09:54;224056.41;;;17.10
68440;BMP180;55421;51.600;5.718;2023-10-08T00:12:21;224045.20;;;17.10
68440;BMP180;55421;51.600;5.718;2023-10-08T00:14:48;224042.00;;;17.10
68440;BMP180;55421;51.600;5.718;2023-10-08T00:17:19;224022.41;;;17.10
68440;BMP180;55421;51.600;5.718;2023-10-08T00:19:47;224016.41;;;17.04
68440;BMP180;55421;51.600;5.718;2023-10-08T00:22:19;224004.00;;;17.00
68440;BMP180;55421;51.600;5.718;2023-10-08T00:24:46;223991.20;;;17.00
68440;BMP180;55421;51.600;5.718;2023-10-08T00:27:15;223988.00;;;17.00
68440;BMP180;55421;51.600;5.718;2023-10-08T00:29:44;223980.00;;;17.00
68440;BMP180;55421;51.600;5.718;2023-10-08T00:32:11;223980.41;;;17.00
68440;BMP180;55421;51.600;5.718;2023-10-08T00:34:40;223976.00;;;17.00
68440;BMP180;55421;51.600;5.718;2023-10-08T00:37:11;223975.59;;;17.00
68440;BMP180;55421;51.600;5.718;2023-10-08T00:39:41;223970.80;;;16.96
68440;BMP180;55421;51.600;5.718;2023-10-08T00:42:08;223957.59;;;16.92
68440;BMP180;55421;51.600;5.718;2023-10-08T00:44:36;223953.20;;;16.90
68440;BMP180;55421;51.600;5.718;2023-10-08T00:47:19;223942.41;;;16.90
68440;BMP180;55421;51.600;5.718;2023-10-08T00:49:51;223925.00;;;16.90
68440;BMP180;55421;51.600;5.718;2023-10-08T00:52:31;223911.41;;;16.86
68440;BMP180;55421;51.600;5.718;2023-10-08T00:55:08;223887.59;;;16.80
68440;BMP180;55421;51.600;5.718;2023-10-08T00:57:41;223871.59;;;16.80
68440;BMP180;55421;51.600;5.718;2023-10-08T01:00:09;223855.59;;;16.78
68440;BMP180;55421;51.600;5.718;2023-10-08T01:02:44;223850.80;;;16.70
68440;BMP180;55421;51.600;5.718;2023-10-08T01:05:17;223837.20;;;16.70
68440;BMP180;55421;51.600;5.718;2023-10-08T01:07:52;223827.20;;;16.70
68440;BMP180;55421;51.600;5.718;2023-10-08T01:10:19;223812.41;;;16.70
68440;BMP180;55421;51.600;5.718;2023-10-08T01:12:47;223789.59;;;16.66
68440;BMP180;55421;51.600;5.718;2023-10-08T01:15:32;223759.59;;;16.60
68440;BMP180;55421;51.600;5.718;2023-10-08T01:18:02;223729.00;;;16.50
68440;BMP180;55421;51.600;5.718;2023-10-08T01:20:31;223715.80;;;16.50
68440;BMP180;55421;51.600;5.718;2023-10-08T01:23:10;223693.00;;;16.50
68440;BMP180;55421;51.600;5.718;2023-10-08T01:25:43;223674.59;;;16.40
68440;BMP180;55421;51.600;5.718;2023-10-08T01:28:18;223647.41;;;16.40
68440;BMP180;55421;51.600;5.718;2023-10-08T01:30:57;223636.80;;;16.40
68440;BMP180;55421;51.600;5.718;2023-10-08T01:33:26;223618.41;;;16.34
68440;BMP180;55421;51.600;5.718;2023-10-08T01:36:04;223608.00;;;16.30
68440;BMP180;55421;51.600;5.718;2023-10-08T01:38:32;223584.41;;;16.30
68440;BMP180;55421;51.600;5.718;2023-10-08T01:41:01;223570.59;;;16.30
68440;BMP180;55421;51.600;5.718;2023-10-08T01:43:48;223545.41;;;16.20
68440;BMP180;55421;51.600;5.718;2023-10-08T01:46:18;223537.41;;;16.20
68440;BMP180;55421;51.600;5.718;2023-10-08T01:48:48;223527.00;;;16.20
68440;BMP180;55421;51.600;5.718;2023-10-08T01:51:19;223513.80;;;16.16
68440;BMP180;55421;51.600;5.718;2023-10-08T01:53:54;223512.20;;;16.16
68440;BMP180;55421;51.600;5.718;2023-10-08T01:56:24;223510.59;;;16.20
68440;BMP180;55421;51.600;5.718;2023-10-08T01:58:51;223512.20;;;16.20
68440;BMP180;55421;51.600;5.718;2023-10-08T02:01:20;223501.00;;;16.10
68440;BMP180;55421;51.600;5.718;2023-10-08T02:03:47;223502.59;;;16.10
68440;BMP180;55421;51.600;5.718;2023-10-08T02:06:14;223493.00;;;16.10
68440;BMP180;55421;51.600;5.718;2023-10-08T02:08:40;223493.00;;;16.10
68440;BMP180;55421;51.600;5.718;2023-10-08T02:11:07;223493.00;;;16.10
68440;BMP180;55421;51.600;5.718;2023-10-08T02:13:35;223480.59;;;16.10
68440;BMP180;55421;51.600;5.718;2023-10-08T02:16:03;223480.59;;;16.10
68440;BMP180;55421;51.600;5.718;2023-10-08T02:18:29;223480.20;;;16.10
68440;BMP180;55421;51.600;5.718;2023-10-08T02:20:57;223473.80;;;16.10
68440;BMP180;55421;51.600;5.718;2023-10-08T02:23:25;223460.20;;;16.08
68440;BMP180;55421;51.600;5.718;2023-10-08T02:25:51;223443.20;;;16.00
68440;BMP180;55421;51.600;5.718;2023-10-08T02:28:18;223443.20;;;16.00
68440;BMP180;55421;51.600;5.718;2023-10-08T02:30:46;223430.80;;;16.00
68440;BMP180;55421;51.600;5.718;2023-10-08T02:33:13;223409.20;;;16.00
68440;BMP180;55421;51.600;5.718;2023-10-08T02:35:46;223389.59;;;15.90
68440;BMP180;55421;51.600;5.718;2023-10-08T02:38:17;223380.41;;;15.90
68440;BMP180;55421;51.600;5.718;2023-10-08T02:40:47;223371.20;;;15.90
68440;BMP180;55421;51.600;5.718;2023-10-08T02:43:14;223359.80;;;15.90
68440;BMP180;55421;51.600;5.718;2023-10-08T02:45:44;223352.20;;;15.90
68440;BMP180;55421;51.600;5.718;2023-10-08T02:48:17;223353.80;;;15.90
68440;BMP180;55421;51.600;5.718;2023-10-08T02:50:44;223345.41;;;15.90
68440;BMP180;55421;51.600;5.718;2023-10-08T02:53:14;223338.20;;;15.84
68440;BMP180;55421;51.600;5.718;2023-10-08T02:55:50;223336.20;;;15.82
68440;BMP180;55421;51.600;5.718;2023-10-08T02:58:16;223316.59;;;15.80
68440;BMP180;55421;51.600;5.718;2023-10-08T03:00:48;223307.80;;;15.80
68440;BMP180;55421;51.600;5.718;2023-10-08T03:03:16;223299.80;;;15.80
68440;BMP180;55421;51.600;5.718;2023-10-08T03:05:49;223299.41;;;15.80
68440;BMP180;55421;51.600;5.718;2023-10-08T03:08:18;223295.41;;;15.80
68440;BMP180;55421;51.600;5.718;2023-10-08T03:10:52;223285.41;;;15.78
68440;BMP180;55421;51.600;5.718;2023-10-08T03:13:22;223281.20;;;15.72
68440;BMP180;55421;51.600;5.718;2023-10-08T03:15:49;223274.00;;;15.72
68440;BMP180;55421;51.600;5.718;2023-10-08T03:18:29;223265.20;;;15.70
68440;BMP180;55421;51.600;5.718;2023-10-08T03:21:04;223249.59;;;15.70
68440;BMP180;55421;51.600;5.718;2023-10-08T03:23:31;223249.59;;;15.70
68440;BMP180;55421;51.600;5.718;2023-10-08T03:26:03;223238.80;;;15.70
68440;BMP180;55421;51.600;5.718;2023-10-08T03:29:01;223228.80;;;15.68
68440;BMP180;55421;51.600;5.718;2023-10-08T03:31:31;223222.80;;;15.60
68440;BMP180;55421;51.600;5.718;2023-10-08T03:34:18;223214.80;;;15.60
68440;BMP180;55421;51.600;5.718;2023-10-08T03:36:47;223205.20;;;15.60
68440;BMP180;55421;51.600;5.718;2023-10-08T03:39:17;223195.59;;;15.60
68440;BMP180;55421;51.600;5.718;2023-10-08T03:41:45;223188.80;;;15.60
68440;BMP180;55421;51.600;5.718;2023-10-08T03:44:32;223178.41;;;15.56
68440;BMP180;55421;51.600;5.718;2023-10-08T03:46:58;223169.20;;;15.50
68440;BMP180;55421;51.600;5.718;2023-10-08T03:49:25;223159.20;;;15.50
68440;BMP180;55421;51.600;5.718;2023-10-08T03:51:52;223148.41;;;15.50
68440;BMP180;55421;51.600;5.718;2023-10-08T03:54:20;223143.00;;;15.50
68440;BMP180;55421;51.600;5.718;2023-10-08T03:56:56;223131.80;;;15.50
68440;BMP180;55421;51.600;5.718;2023-10-08T03:59:23;223133.41;;;15.50
68440;BMP180;55421;51.600;5.718;2023-10-08T04:01:57;223142.59;;;15.50
68440;BMP180;55421;51.600;5.718;2023-10-08T04:04:25;223148.41;;;15.50
68440;BMP180;55421;51.600;5.718;2023-10-08T04:07:12;223148.00;;;15.50
68440;BMP180;55421;51.600;5.718;2023-10-08T04:09:51;223149.59;;;15.50
68440;BMP180;55421;51.600;5.718;2023-10-08T04:12:39;223135.00;;;15.50
68440;BMP180;55421;51.600;5.718;2023-10-08T04:15:13;223121.80;;;15.50
68440;BMP180;55421;51.600;5.718;2023-10-08T04:17:42;223121.80;;;15.50
68440;BMP180;55421;51.600;5.718;2023-10-08T04:20:17;223125.00;;;15.50
68440;BMP180;55421;51.600;5.718;2023-10-08T04:23:02;223116.59;;;15.46
68440;BMP180;55421;51.600;5.718;2023-10-08T04:25:31;223106.41;;;15.40
68440;BMP180;55421;51.600;5.718;2023-10-08T04:30:35;223079.59;;;15.40
68440;BMP180;55421;51.600;5.718;2023-10-08T04:33:05;223076.41;;;15.40
68440;BMP180;55421;51.600;5.718;2023-10-08T04:35:41;223082.80;;;15.40
68440;BMP180;55421;51.600;5.718;2023-10-08T04:38:24;223084.00;;;15.40
68440;BMP180;55421;51.600;5.718;2023-10-08T04:40:55;223085.59;;;15.40
68440;BMP180;55421;51.600;5.718;2023-10-08T04:43:27;223077.59;;;15.40
68440;BMP180;55421;51.600;5.718;2023-10-08T04:45:55;223068.00;;;15.40
68440;BMP180;55421;51.600;5.718;2023-10-08T04:48:25;223062.00;;;15.36
68440;BMP180;55421;51.600;5.718;2023-10-08T04:50:52;223063.59;;;15.40
68440;BMP180;55421;51.600;5.718;2023-10-08T04:53:31;223054.00;;;15.30
68440;BMP180;55421;51.600;5.718;2023-10-08T04:56:04;223046.00;;;15.30
68440;BMP180;55421;51.600;5.718;2023-10-08T04:58:40;223044.80;;;15.30
68440;BMP180;55421;51.600;5.718;2023-10-08T05:01:08;223034.00;;;15.30
68440;BMP180;55421;51.600;5.718;2023-10-08T05:03:54;223020.80;;;15.30
68440;BMP180;55421;51.600;5.718;2023-10-08T05:06:29;223025.20;;;15.30
68440;BMP180;55421;51.600;5.718;2023-10-08T05:09:12;223026.80;;;15.30
68440;BMP180;55421;51.600;5.718;2023-10-08T05:11:52;223032.00;;;15.30
68440;BMP180;55421;51.600;5.718;2023-10-08T05:14:23;223030.41;;;15.30
68440;BMP180;55421;51.600;5.718;2023-10-08T05:17:01;223029.20;;;15.30
68440;BMP180;55421;51.600;5.718;2023-10-08T05:19:40;223025.59;;;15.30
68440;BMP180;55421;51.600;5.718;2023-10-08T05:22:08;223020.41;;;15.30
68440;BMP180;55421;51.600;5.718;2023-10-08T05:24:46;223020.80;;;15.30
68440;BMP180;55421;51.600;5.718;2023-10-08T05:27:37;223014.41;;;15.30
68440;BMP180;55421;51.600;5.718;2023-10-08T05:30:18;222993.20;;;15.20
68440;BMP180;55421;51.600;5.718;2023-10-08T05:33:00;222979.80;;;15.20
68440;BMP180;55421;51.600;5.718;2023-10-08T05:35:36;222976.20;;;15.20
68440;BMP180;55421;51.600;5.718;2023-10-08T05:38:10;222968.20;;;15.20
68440;BMP180;55421;51.600;5.718;2023-10-08T05:40:43;222951.80;;;15.20
68440;BMP180;55421;51.600;5.718;2023-10-08T05:43:36;222941.41;;;15.12
68440;BMP180;55421;51.600;5.718;2023-10-08T05:46:04;222910.59;;;15.10
68440;BMP180;55421;51.600;5.718;2023-10-08T05:48:55;222881.00;;;15.00
68440;BMP180;55421;51.600;5.718;2023-10-08T05:51:37;222876.20;;;15.00
68440;BMP180;55421;51.600;5.718;2023-10-08T05:54:19;222879.41;;;15.00
68440;BMP180;55421;51.600;5.718;2023-10-08T05:57:06;222870.80;;;15.00
68440;BMP180;55421;51.600;5.718;2023-10-08T06:02:27;222867.00;;;15.00
68440;BMP180;55421;51.600;5.718;2023-10-08T06:05:06;222867.00;;;15.00
68440;BMP180;55421;51.600;5.718;2023-10-08T06:08:04;222872.41;;;15.00
68440;BMP180;55421;51.600;5.718;2023-10-08T06:10:41;222883.80;;;15.08
68440;BMP180;55421;51.600;5.718;2023-10-08T06:13:13;222891.41;;;15.06
68440;BMP180;55421;51.600;5.718;2023-10-08T06:15:48;222901.41;;;15.10
68440;BMP180;55421;51.600;5.718;2023-10-08T06:18:19;222900.20;;;15.10
68440;BMP180;55421;51.600;5.718;2023-10-08T06:20:46;222897.41;;;15.10
68440;BMP180;55421;51.600;5.718;2023-10-08T06:23:15;222903.41;;;15.10
68440;BMP180;55421;51.600;5.718;2023-10-08T06:25:45;222914.59;;;15.10
68440;BMP180;55421;51.600;5.718;2023-10-08T06:28:17;222922.20;;;15.10
68440;BMP180;55421;51.600;5.718;2023-10-08T06:30:48;222922.20;;;15.10
68440;BMP180;55421;51.600;5.718;2023-10-08T06:33:15;222922.20;;;15.10
68440;BMP180;55421;51.600;5.718;2023-10-08T06:35:43;222902.20;;;15.10
68440;BMP180;55421;51.600;5.718;2023-10-08T06:38:11;222892.59;;;15.10
68440;BMP180;55421;51.600;5.718;2023-10-08T06:40:42;222897.80;;;15.10
68440;BMP180;55421;51.600;5.718;2023-10-08T06:43:10;222913.00;;;15.10
68440;BMP180;55421;51.600;5.718;2023-10-08T06:45:51;222936.59;;;15.10
68440;BMP180;55421;51.600;5.718;2023-10-08T06:48:26;222943.00;;;15.14
68440;BMP180;55421;51.600;5.718;2023-10-08T06:50:56;222946.20;;;15.20
68440;BMP180;55421;51.600;5.718;2023-10-08T06:53:34;222966.59;;;15.20
68440;BMP180;55421;51.600;5.718;2023-10-08T06:56:00;222965.00;;;15.20
68440;BMP180;55421;51.600;5.718;2023-10-08T06:58:31;222966.59;;;15.20
68440;BMP180;55421;51.600;5.718;2023-10-08T07:00:59;222949.00;;;15.20
68440;BMP180;55421;51.600;5.718;2023-10-08T07:03:32;222939.80;;;15.10
68440;BMP180;55421;51.600;5.718;2023-10-08T07:06:00;222957.80;;;15.20
68440;BMP180;55421;51.600;5.718;2023-10-08T07:08:31;222987.80;;;15.20
68440;BMP180;55421;51.600;5.718;2023-10-08T07:11:00;223030.41;;;15.30
68440;BMP180;55421;51.600;5.718;2023-10-08T07:13:28;223052.41;;;15.30
68440;BMP180;55421;51.600;5.718;2023-10-08T07:15:56;223072.80;;;15.40
68440;BMP180;55421;51.600;5.718;2023-10-08T07:18:23;223082.41;;;15.40
68440;BMP180;55421;51.600;5.718;2023-10-08T07:20:54;223084.00;;;15.40
68440;BMP180;55421;51.600;5.718;2023-10-08T07:23:23;223093.59;;;15.40
68440;BMP180;55421;51.600;5.718;2023-10-08T07:25:58;223075.20;;;15.40
68440;BMP180;55421;51.600;5.718;2023-10-08T07:28:38;223076.41;;;15.40
68440;BMP180;55421;51.600;5.718;2023-10-08T07:31:17;223065.20;;;15.36
68440;BMP180;55421;51.600;5.718;2023-10-08T07:33:51;223069.59;;;15.40
68440;BMP180;55421;51.600;5.718;2023-10-08T07:36:26;223084.00;;;15.40
68440;BMP180;55421;51.600;5.718;2023-10-08T07:38:53;223093.59;;;15.40
68440;BMP180;55421;51.600;5.718;2023-10-08T07:41:20;223110.80;;;15.44
68440;BMP180;55421;51.600;5.718;2023-10-08T07:43:48;223135.00;;;15.50
68440;BMP180;55421;51.600;5.718;2023-10-08T07:46:25;223152.20;;;15.50
68440;BMP180;55421;51.600;5.718;2023-10-08T07:48:56;223167.20;;;15.50
68440;BMP180;55421;51.600;5.718;2023-10-08T07:51:24;223175.20;;;15.56
68440;BMP180;55421;51.600;5.718;2023-10-08T07:53:51;223192.80;;;15.60
68440;BMP180;55421;51.600;5.718;2023-10-08T07:56:25;223206.80;;;15.60
68440;BMP180;55421;51.600;5.718;2023-10-08T07:58:53;223221.20;;;15.60
68440;BMP180;55421;51.600;5.718;2023-10-08T08:01:24;223231.59;;;15.70
68440;BMP180;55421;51.600;5.718;2023-10-08T08:03:51;223244.80;;;15.70
68440;BMP180;55421;51.600;5.718;2023-10-08T08:06:17;223251.20;;;15.70
68440;BMP180;55421;51.600;5.718;2023-10-08T08:08:44;223246.41;;;15.70
68440;BMP180;55421;51.600;5.718;2023-10-08T08:11:11;223248.00;;;15.70
68440;BMP180;55421;51.600;5.718;2023-10-08T08:13:45;223238.41;;;15.70
68440;BMP180;55421;51.600;5.718;2023-10-08T08:16:15;223230.00;;;15.70
68440;BMP180;55421;51.600;5.718;2023-10-08T08:18:50;223248.00;;;15.70
68440;BMP180;55421;51.600;5.718;2023-10-08T08:21:19;223271.20;;;15.70
68440;BMP180;55421;51.600;5.718;2023-10-08T08:23:47;223310.59;;;15.80
68440;BMP180;55421;51.600;5.718;2023-10-08T08:26:23;223343.80;;;15.88
68440;BMP180;55421;51.600;5.718;2023-10-08T08:29:06;223362.59;;;15.90
68440;BMP180;55421;51.600;5.718;2023-10-08T08:31:41;223404.00;;;15.96
68440;BMP180;55421;51.600;5.718;2023-10-08T08:34:12;223417.20;;;16.00
68440;BMP180;55421;51.600;5.718;2023-10-08T08:36:46;223434.00;;;16.00
68440;BMP180;55421;51.600;5.718;2023-10-08T08:39:16;223434.00;;;16.00
68440;BMP180;55421;51.600;5.718;2023-10-08T08:41:59;223426.00;;;16.00
68440;BMP180;55421;51.600;5.718;2023-10-08T08:44:28;223406.80;;;16.00
68440;BMP180;55421;51.600;5.718;2023-10-08T08:47:00;223394.41;;;15.90
68440;BMP180;55421;51.600;5.718;2023-10-08T08:49:35;223397.20;;;15.90
68440;BMP180;55421;51.600;5.718;2023-10-08T08:52:05;223392.80;;;15.90
68440;BMP180;55421;51.600;5.718;2023-10-08T08:54:32;223404.00;;;15.98
68440;BMP180;55421;51.600;5.718;2023-10-08T08:57:04;223408.00;;;16.00
68440;BMP180;55421;51.600;5.718;2023-10-08T08:59:31;223403.59;;;15.92
68440;BMP180;55421;51.600;5.718;2023-10-08T09:02:00;223378.20;;;15.90
68440;BMP180;55421;51.600;5.718;2023-10-08T09:04:31;223378.80;;;15.90
68440;BMP180;55421;51.600;5.718;2023-10-08T09:06:59;223372.80;;;15.90
68440;BMP180;55421;51.600;5.718;2023-10-08T09:09:35;223356.20;;;15.90
68440;BMP180;55421;51.600;5.718;2023-10-08T09:12:05;223356.59;;;15.90
68440;BMP180;55421;51.600;5.718;2023-10-08T09:14:32;223357.80;;;15.90
68440;BMP180;55421;51.600;5.718;2023-10-08T09:17:01;223355.00;;;15.90
68440;BMP180;55421;51.600;5.718;2023-10-08T09:19:36;223351.00;;;15.90
68440;BMP180;55421;51.600;5.718;2023-10-08T09:22:10;223348.20;;;15.90
68440;BMP180;55421;51.600;5.718;2023-10-08T09:24:40;223346.59;;;15.90
68440;BMP180;55421;51.600;5.718;2023-10-08T09:27:09;223356.20;;;15.90
68440;BMP180;55421;51.600;5.718;2023-10-08T09:29:41;223371.20;;;15.90
68440;BMP180;55421;51.600;5.718;2023-10-08T09:32:11;223400.80;;;15.98
68440;BMP180;55421;51.600;5.718;2023-10-08T09:34:40;223438.80;;;16.00
68440;BMP180;55421;51.600;5.718;2023-10-08T09:37:06;223464.59;;;16.10
68440;BMP180;55421;51.600;5.718;2023-10-08T09:39:37;223464.59;;;16.10
68440;BMP180;55421;51.600;5.718;2023-10-08T09:42:05;223458.80;;;16.06
68440;BMP180;55421;51.600;5.718;2023-10-08T09:44:38;223456.20;;;16.04
68440;BMP180;55421;51.600;5.718;2023-10-08T09:47:08;223477.80;;;16.10
68440;BMP180;55421;51.600;5.718;2023-10-08T09:49:52;223507.41;;;16.10
68440;BMP180;55421;51.600;5.718;2023-10-08T09:52:30;223545.41;;;16.20
68440;BMP180;55421;51.600;5.718;2023-10-08T09:55:02;223580.59;;;16.30
68440;BMP180;55421;51.600;5.718;2023-10-08T09:57:31;223620.80;;;16.40
68440;BMP180;55421;51.600;5.718;2023-10-08T09:59:59;223653.41;;;16.40
68440;BMP180;55421;51.600;5.718;2023-10-08T10:02:26;223666.59;;;16.40
68440;BMP180;55421;51.600;5.718;2023-10-08T10:04:55;223677.80;;;16.40
68440;BMP180;55421;51.600;5.718;2023-10-08T10:07:22;223676.20;;;16.40
68440;BMP180;55421;51.600;5.718;2023-10-08T10:09:51;223669.80;;;16.40
68440;BMP180;55421;51.600;5.718;2023-10-08T10:12:27;223673.00;;;16.42
68440;BMP180;55421;51.600;5.718;2023-10-08T10:14:57;223697.00;;;16.50
68440;BMP180;55421;51.600;5.718;2023-10-08T10:17:27;223732.20;;;16.50
68440;BMP180;55421;51.600;5.718;2023-10-08T10:19:56;223764.80;;;16.60
68440;BMP180;55421;51.600;5.718;2023-10-08T10:22:33;223785.59;;;16.60
68440;BMP180;55421;51.600;5.718;2023-10-08T10:25:05;223785.59;;;16.60
68440;BMP180;55421;51.600;5.718;2023-10-08T10:30:19;223786.41;;;16.60
68440;BMP180;55421;51.600;5.718;2023-10-08T10:32:46;223790.80;;;16.60
68440;BMP180;55421;51.600;5.718;2023-10-08T10:35:15;223812.41;;;16.70
68440;BMP180;55421;51.600;5.718;2023-10-08T10:37:46;223857.59;;;16.78
68440;BMP180;55421;51.600;5.718;2023-10-08T10:40:24;223933.59;;;16.90
68440;BMP180;55421;51.600;5.718;2023-10-08T10:43:17;224013.20;;;17.02
68440;BMP180;55421;51.600;5.718;2023-10-08T10:45:46;224077.41;;;17.16
68440;BMP180;55421;51.600;5.718;2023-10-08T10:48:13;224117.00;;;17.20
68440;BMP180;55421;51.600;5.718;2023-10-08T10:50:48;224164.80;;;17.30
68440;BMP180;55421;51.600;5.718;2023-10-08T10:53:36;224180.80;;;17.30
68440;BMP180;55421;51.600;5.718;2023-10-08T10:56:25;224182.41;;;17.30
68440;BMP180;55421;51.600;5.718;2023-10-08T10:59:02;224183.59;;;17.30
68440;BMP180;55421;51.600;5.718;2023-10-08T11:01:46;224186.80;;;17.32
68440;BMP180;55421;51.600;5.718;2023-10-08T11:04:31;224184.00;;;17.30
68440;BMP180;55421;51.600;5.718;2023-10-08T11:07:00;224178.00;;;17.30
68440;BMP180;55421;51.600;5.718;2023-10-08T11:09:27;224172.41;;;17.30
68440;BMP180;55421;51.600;5.718;2023-10-08T11:12:08;224168.00;;;17.30
68440;BMP180;55421;51.600;5.718;2023-10-08T11:14:41;224212.00;;;17.40
68440;BMP180;55421;51.600;5.718;2023-10-08T11:17:38;224238.20;;;17.40
68440;BMP180;55421;51.600;5.718;2023-10-08T11:20:28;224252.20;;;17.50
68440;BMP180;55421;51.600;5.718;2023-10-08T11:22:56;224279.80;;;17.50
68440;BMP180;55421;51.600;5.718;2023-10-08T11:25:28;224287.41;;;17.50
68440;BMP180;55421;51.600;5.718;2023-10-08T11:27:57;224294.20;;;17.50
68440;BMP180;55421;51.600;5.718;2023-10-08T11:30:35;224294.59;;;17.50
68440;BMP180;55421;51.600;5.718;2023-10-08T11:33:02;224295.80;;;17.50
68440;BMP180;55421;51.600;5.718;2023-10-08T11:35:32;224296.20;;;17.50
68440;BMP180;55421;51.600;5.718;2023-10-08T11:38:00;224276.59;;;17.50
68440;BMP180;55421;51.600;5.718;2023-10-08T11:40:28;224244.59;;;17.40
68440;BMP180;55421;51.600;5.718;2023-10-08T11:42:57;224220.00;;;17.40
68440;BMP180;55421;51.600;5.718;2023-10-08T11:45:26;224193.20;;;17.32
68440;BMP180;55421;51.600;5.718;2023-10-08T11:47:54;224164.80;;;17.30
68440;BMP180;55421;51.600;5.718;2023-10-08T11:50:31;224141.59;;;17.30
68440;BMP180;55421;51.600;5.718;2023-10-08T11:52:59;224138.41;;;17.30
68440;BMP180;55421;51.600;5.718;2023-10-08T11:55:32;224163.20;;;17.30
68440;BMP180;55421;51.600;5.718;2023-10-08T11:58:04;224191.59;;;17.34
68440;BMP180;55421;51.600;5.718;2023-10-08T12:00:41;224247.80;;;17.46
68440;BMP180;55421;51.600;5.718;2023-10-08T12:03:15;224309.80;;;17.60
68440;BMP180;55421;51.600;5.718;2023-10-08T12:05:46;224352.59;;;17.60
68440;BMP180;55421;51.600;5.718;2023-10-08T12:08:17;224368.00;;;17.70
68440;BMP180;55421;51.600;5.718;2023-10-08T12:10:45;224382.00;;;17.70
68440;BMP180;55421;51.600;5.718;2023-10-08T12:13:15;224382.41;;;17.70
68440;BMP180;55421;51.600;5.718;2023-10-08T12:15:47;224396.00;;;17.70
68440;BMP180;55421;51.600;5.718;2023-10-08T12:18:14;224436.20;;;17.80
68440;BMP180;55421;51.600;5.718;2023-10-08T12:20:52;224480.20;;;17.90
68440;BMP180;55421;51.600;5.718;2023-10-08T12:23:20;224526.20;;;18.00
68440;BMP180;55421;51.600;5.718;2023-10-08T12:25:56;224563.20;;;18.00
68440;BMP180;55421;51.600;5.718;2023-10-08T12:28:24;224571.20;;;18.00
68440;BMP180;55421;51.600;5.718;2023-10-08T12:30:52;224582.00;;;18.00
68440;BMP180;55421;51.600;5.718;2023-10-08T12:33:27;224560.00;;;18.00
68440;BMP180;55421;51.600;5.718;2023-10-08T12:35:56;224526.20;;;18.00
68440;BMP180;55421;51.600;5.718;2023-10-08T12:38:24;224504.20;;;17.90
68440;BMP180;55421;51.600;5.718;2023-10-08T12:40:54;224489.80;;;17.90
68440;BMP180;55421;51.600;5.718;2023-10-08T12:43:24;224491.41;;;17.90
68440;BMP180;55421;51.600;5.718;2023-10-08T12:45:54;224499.41;;;17.90
68440;BMP180;55421;51.600;5.718;2023-10-08T12:48:25;224507.00;;;17.90
68440;BMP180;55421;51.600;5.718;2023-10-08T12:50:55;224496.20;;;17.90
68440;BMP180;55421;51.600;5.718;2023-10-08T12:53:27;224494.59;;;17.90
68440;BMP180;55421;51.600;5.718;2023-10-08T12:56:05;224504.20;;;17.90
68440;BMP180;55421;51.600;5.718;2023-10-08T12:58:36;224517.00;;;17.90
68440;BMP180;55421;51.600;5.718;2023-10-08T13:01:10;224523.00;;;17.98
68440;BMP180;55421;51.600;5.718;2023-10-08T13:03:38;224538.41;;;18.00
68440;BMP180;55421;51.600;5.718;2023-10-08T13:06:09;224571.20;;;18.00
68440;BMP180;55421;51.600;5.718;2023-10-08T13:08:37;224622.00;;;18.10
68440;BMP180;55421;51.600;5.718;2023-10-08T13:11:04;224680.59;;;18.20
68440;BMP180;55421;51.600;5.718;2023-10-08T13:13:31;224733.59;;;18.30
68440;BMP180;55421;51.600;5.718;2023-10-08T13:16:00;224746.41;;;18.30
68440;BMP180;55421;51.600;5.718;2023-10-08T13:18:29;224752.80;;;18.32
68440;BMP180;55421;51.600;5.718;2023-10-08T13:20:56;224790.80;;;18.40
68440;BMP180;55421;51.600;5.718;2023-10-08T13:23:24;224826.00;;;18.50
68440;BMP180;55421;51.600;5.718;2023-10-08T13:25:50;224859.41;;;18.56
68440;BMP180;55421;51.600;5.718;2023-10-08T13:28:24;224909.80;;;18.60
68440;BMP180;55421;51.600;5.718;2023-10-08T13:30:54;224966.41;;;18.70
68440;BMP180;55421;51.600;5.718;2023-10-08T13:33:24;224991.59;;;18.76
68440;BMP180;55421;51.600;5.718;2023-10-08T13:35:51;225007.59;;;18.80
68440;BMP180;55421;51.600;5.718;2023-10-08T13:38:19;225019.41;;;18.80
68440;BMP180;55421;51.600;5.718;2023-10-08T13:40:47;225013.59;;;18.80
68440;BMP180;55421;51.600;5.718;2023-10-08T13:43:33;225039.41;;;18.82
68440;BMP180;55421;51.600;5.718;2023-10-08T13:46:03;225062.20;;;18.90
68440;BMP180;55421;51.600;5.718;2023-10-08T13:48:31;225091.00;;;18.96
68440;BMP180;55421;51.600;5.718;2023-10-08T13:51:03;225087.80;;;18.90
68440;BMP180;55421;51.600;5.718;2023-10-08T13:53:32;225084.59;;;18.90
68440;BMP180;55421;51.600;5.718;2023-10-08T13:56:00;225116.20;;;19.00
68440;BMP180;55421;51.600;5.718;2023-10-08T13:58:28;225135.41;;;19.00
68440;BMP180;55421;51.600;5.718;2023-10-08T14:00:59;225165.80;;;19.10
68440;BMP180;55421;51.600;5.718;2023-10-08T14:03:27;225173.00;;;19.10
68440;BMP180;55421;51.600;5.718;2023-10-08T14:05:55;225169.41;;;19.10
68440;BMP180;55421;51.600;5.718;2023-10-08T14:08:25;225172.80;;;19.10
68440;BMP180;55421;51.600;5.718;2023-10-08T14:10:55;225187.20;;;19.10
68440;BMP180;55421;51.600;5.718;2023-10-08T14:13:32;225171.00;;;19.10
68440;BMP180;55421;51.600;5.718;2023-10-08T14:15:59;225163.20;;;19.10
68440;BMP180;55421;51.600;5.718;2023-10-08T14:18:25;225154.20;;;19.10
68440;BMP180;55421;51.600;5.718;2023-10-08T14:20:55;225139.80;;;19.02
68440;BMP180;55421;51.600;5.718;2023-10-08T14:23:23;225125.41;;;19.00
68440;BMP180;55421;51.600;5.718;2023-10-08T14:25:52;225114.59;;;19.00
68440;BMP180;55421;51.600;5.718;2023-10-08T14:28:21;225099.00;;;18.96
68440;BMP180;55421;51.600;5.718;2023-10-08T14:30:49;225068.20;;;18.90
68440;BMP180;55421;51.600;5.718;2023-10-08T14:33:21;225033.41;;;18.82